Time;durP1;ratioP1;P1;durP2;ratioP2;P2;SDS_P1;SDS_P2;PMS_P1;PMS_P2;Temp;Humidity;BMP_temperature;BMP_pressure;BME280_temperature;BME280_humidity;BME280_pressure;Samples;Min_cycle;Max_cycle;Signal;HPM_P1;HPM_P2
2022/11/20 00:00:09;;;;;;;14.37;10.03;;;;;;;11.05;61.14;98265.59;7016220;28;20220;-82
2022/11/20 00:03:31;;;;;;;14.03;12.43;;;;;;;11.02;61.84;98266.84;7014808;28;20213;-82
2022/11/20 00:06:53;;;;;;;12.60;9.93;;;;;;;11.21;61.45;98262.34;7014302;28;20597;-82
2022/11/20 00:10:16;;;;;;;13.17;9.60;;;;;;;10.93;61.83;98229.59;7015867;28;20208;-82
2022/11/20 00:13:37;;;;;;;12.70;9.60;;;;;;;11.26;61.46;98254.38;7013807;28;20223;-82
2022/11/20 00:16:59;;;;;;;17.20;11.53;;;;;;;10.57;62.90;98251.06;7013754;28;20236;-82
2022/11/20 00:20:20;;;;;;;15.27;11.10;;;;;;;10.53;63.34;98261.44;7014713;28;20204;-82
2022/11/20 00:23:42;;;;;;;18.07;12.60;;;;;;;10.41;63.22;98243.47;7013533;28;20215;-82
2022/11/20 00:27:05;;;;;;;16.73;12.03;;;;;;;10.67;63.42;98254.91;7014429;28;20861;-82
2022/11/20 00:30:26;;;;;;;17.53;12.60;;;;;;;10.98;62.52;98241.38;7014845;28;20233;-82
2022/11/20 00:33:48;;;;;;;19.17;11.90;;;;;;;11.05;61.82;98244.81;7014198;28;20271;-82
2022/11/20 00:37:09;;;;;;;20.37;11.40;;;;;;;11.03;62.19;98257.72;7013335;28;20266;-82
2022/11/20 00:40:31;;;;;;;15.13;11.00;;;;;;;11.06;62.34;98251.88;7013954;28;20212;-83
2022/11/20 00:43:55;;;;;;;16.33;11.63;;;;;;;10.80;61.42;98186.56;7013756;28;20669;-82
2022/11/20 00:47:17;;;;;;;17.10;11.70;;;;;;;10.50;62.37;98221.44;7013269;28;20229;-81
2022/11/20 00:50:38;;;;;;;18.23;12.17;;;;;;;10.39;62.88;98259.06;7015635;28;20297;-80
2022/11/20 00:54:01;;;;;;;15.23;10.60;;;;;;;10.67;62.45;98221.72;7014685;28;20251;-80
2022/11/20 00:57:23;;;;;;;16.90;11.60;;;;;;;10.77;62.95;98262.50;7013877;28;20230;-82
2022/11/20 01:00:46;;;;;;;15.43;11.53;;;;;;;10.76;62.44;98268.94;7013119;28;20762;-82
2022/11/20 01:04:07;;;;;;;14.60;11.73;;;;;;;10.89;62.23;98247.25;7014385;28;20196;-82
2022/11/20 01:07:29;;;;;;;16.80;11.93;;;;;;;11.16;61.67;98267.56;7012531;28;20260;-82
2022/11/20 01:10:50;;;;;;;12.10;10.10;;;;;;;11.01;61.34;98258.97;7011971;28;20209;-82
2022/11/20 01:14:14;;;;;;;14.60;10.93;;;;;;;10.76;61.74;98268.94;7012223;28;20233;-82
2022/11/20 01:17:36;;;;;;;13.93;10.80;;;;;;;10.73;62.54;98254.03;7011269;28;20260;-82
2022/11/20 01:21:02;;;;;;;16.07;11.07;;;;;;;11.01;62.33;98277.84;7011468;28;20207;-82
2022/11/20 01:24:24;;;;;;;15.10;12.47;;;;;;;11.18;62.02;98277.09;7008035;28;20777;-82
2022/11/20 01:27:45;;;;;;;21.93;10.90;;;;;;;10.86;62.49;98286.28;7009132;28;20255;-82
2022/11/20 01:31:17;;;;;;;16.80;11.23;;;;;;;10.69;63.12;98292.44;7010569;28;20339;-82
2022/11/20 01:34:40;;;;;;;14.30;10.90;;;;;;;10.53;63.88;98292.94;7011303;28;20200;-82
2022/11/20 01:38:02;;;;;;;11.73;9.30;;;;;;;10.85;62.92;98271.16;7011334;28;20267;-82
2022/11/20 01:45:37;;;;;;;12.07;9.70;;;;;;;11.24;62.33;98272.66;7009951;28;20186;-82
2022/11/20 01:49:01;;;;;;;13.20;8.20;;;;;;;11.23;61.44;98276.41;7010280;28;20229;-82
2022/11/20 01:52:26;;;;;;;8.73;7.17;;;;;;;11.41;60.78;98285.38;7011017;28;20206;-82
2022/11/20 01:55:50;;;;;;;11.63;8.63;;;;;;;10.61;61.56;98230.69;7011001;28;20232;-82
2022/11/20 01:59:14;;;;;;;9.30;7.70;;;;;;;11.31;60.37;98268.03;7011067;28;20275;-82
2022/11/20 02:02:37;;;;;;;8.77;6.97;;;;;;;11.20;60.56;98279.56;7010462;28;20216;-82
2022/11/20 02:06:04;;;;;;;6.63;5.97;;;;;;;11.14;60.65;98283.97;7009463;28;20299;-82
2022/11/20 02:09:27;;;;;;;9.00;5.93;;;;;;;11.28;59.38;98255.81;7009531;28;20246;-82
2022/11/20 02:16:30;;;;;;;12.30;6.30;;;;;;;11.17;59.43;98269.22;7005141;28;20309;-82
2022/11/20 02:19:52;;;;;;;10.27;6.07;;;;;;;11.13;59.15;98265.28;7005553;28;20201;-82
2022/11/20 02:23:15;;;;;;;5.13;4.60;;;;;;;10.97;59.74;98276.63;7004086;28;20294;-82
2022/11/20 02:26:44;;;;;;;6.87;4.40;;;;;;;11.01;58.78;98281.41;7004400;28;20720;-82
2022/11/20 02:30:07;;;;;;;4.53;4.10;;;;;;;11.03;59.26;98278.47;7005590;28;20236;-82
2022/11/20 02:33:29;;;;;;;4.03;3.67;;;;;;;11.24;58.33;98278.06;7006436;28;20213;-83
2022/11/20 02:36:52;;;;;;;6.37;4.10;;;;;;;11.25;58.50;98280.56;7005206;28;20268;-82
2022/11/20 02:40:14;;;;;;;4.10;3.80;;;;;;;11.11;58.72;98284.41;7007011;28;20229;-82
2022/11/20 02:43:36;;;;;;;6.00;4.63;;;;;;;11.20;58.56;98279.56;7006888;28;20293;-83
2022/11/20 02:46:58;;;;;;;3.77;3.47;;;;;;;10.94;58.65;98283.31;7007143;28;20224;-82
2022/11/20 02:50:20;;;;;;;4.37;3.60;;;;;;;11.19;58.39;98270.66;7007694;28;20209;-83
2022/11/20 02:53:42;;;;;;;4.13;3.70;;;;;;;11.11;59.06;98287.09;7008422;28;20213;-82
2022/11/20 02:57:03;;;;;;;5.20;3.30;;;;;;;11.17;58.15;98269.22;7008770;28;20257;-82
2022/11/20 03:00:26;;;;;;;5.50;3.53;;;;;;;11.09;58.04;98270.31;7008893;28;20225;-82
2022/11/20 03:03:48;;;;;;;3.97;3.40;;;;;;;11.26;58.13;98281.34;7009036;28;20204;-82
2022/11/20 03:07:10;;;;;;;5.70;3.43;;;;;;;11.18;57.87;98271.69;7015715;22;20223;-82
2022/11/20 03:10:31;;;;;;;3.90;3.60;;;;;;;11.32;57.52;98285.88;7008849;28;20224;-82
2022/11/20 03:13:53;;;;;;;4.07;3.63;;;;;;;10.95;57.93;98281.44;7007301;28;20240;-83
2022/11/20 03:17:16;;;;;;;4.33;3.97;;;;;;;11.28;57.53;98250.41;7005226;28;20374;-82
2022/11/20 03:20:38;;;;;;;5.07;3.73;;;;;;;11.36;56.72;98271.72;7007664;28;20229;-82
2022/11/20 03:23:59;;;;;;;4.30;3.90;;;;;;;11.28;57.44;98257.69;7005955;28;20685;-82
2022/11/20 03:27:21;;;;;;;3.70;3.40;;;;;;;11.47;57.23;98259.38;7004832;28;20874;-83
2022/11/20 03:30:42;;;;;;;4.00;3.60;;;;;;;11.45;56.94;98266.88;7004677;28;20296;-82
2022/11/20 03:34:05;;;;;;;4.37;3.97;;;;;;;11.55;56.44;98268.00;7005826;28;20225;-82
2022/11/20 03:37:27;;;;;;;4.37;3.40;;;;;;;11.30;56.79;98272.63;7005352;28;20322;-82
2022/11/20 03:40:48;;;;;;;4.67;4.00;;;;;;;11.22;56.89;98261.28;7006165;28;20259;-82
2022/11/20 03:44:11;;;;;;;3.97;3.57;;;;;;;11.37;56.48;98264.44;7006038;28;20200;-82
2022/11/20 03:47:32;;;;;;;7.80;5.13;;;;;;;11.40;56.03;98255.91;7005589;28;20281;-82
2022/11/20 03:51:07;;;;;;;3.50;3.20;;;;;;;11.11;56.64;98262.81;7009861;28;20254;-83
2022/11/20 03:54:29;;;;;;;3.63;3.30;;;;;;;10.81;57.31;98237.56;7009030;28;20664;-82
2022/11/20 03:57:50;;;;;;;3.40;3.10;;;;;;;10.36;57.82;98227.97;7008309;28;20415;-82
2022/11/20 04:01:14;;;;;;;3.80;3.50;;;;;;;10.45;58.51;98256.31;7007010;28;20208;-83
2022/11/20 04:04:35;;;;;;;6.17;3.73;;;;;;;10.44;58.18;98251.13;7013414;28;20262;-81
2022/11/20 04:07:58;;;;;;;3.50;3.03;;;;;;;10.60;57.85;98250.59;7007357;28;20244;-83
2022/11/20 04:11:22;;;;;;;3.90;3.50;;;;;;;10.45;58.39;98258.19;7008284;28;20236;-80
2022/11/20 04:14:44;;;;;;;5.33;3.57;;;;;;;10.62;58.56;98262.81;7009385;28;20231;-80
2022/11/20 04:18:05;;;;;;;4.40;3.50;;;;;;;10.72;57.88;98255.06;7009198;28;20269;-83
2022/11/20 04:21:27;;;;;;;4.83;3.70;;;;;;;11.01;57.48;98258.97;7008700;28;20239;-81
2022/11/20 04:24:50;;;;;;;3.80;3.43;;;;;;;10.89;56.95;98264.28;7005701;28;20206;-83
2022/11/20 04:28:12;;;;;;;3.77;3.47;;;;;;;10.66;57.46;98220.06;7005847;28;20792;-80
2022/11/20 04:31:35;;;;;;;3.87;3.50;;;;;;;10.71;57.31;98256.13;7007285;28;20233;-82
2022/11/20 04:34:56;;;;;;;4.17;3.67;;;;;;;10.62;57.85;98254.72;7005650;28;20661;-80
2022/11/20 04:38:18;;;;;;;6.10;4.37;;;;;;;11.03;56.86;98249.63;7006517;28;20366;-80
2022/11/20 04:41:40;;;;;;;4.57;4.17;;;;;;;11.04;57.22;98236.97;7007325;28;20236;-81
2022/11/20 04:45:02;;;;;;;5.07;3.80;;;;;;;10.90;57.42;98246.22;7005515;28;20631;-82
2022/11/20 04:48:24;;;;;;;4.50;4.10;;;;;;;11.00;57.31;98244.69;7005609;28;20266;-82
2022/11/20 04:51:45;;;;;;;3.70;3.40;;;;;;;10.91;56.97;98251.38;7005877;28;20617;-82
2022/11/20 04:55:08;;;;;;;3.77;3.30;;;;;;;10.50;58.72;98243.00;7005006;28;20239;-82
2022/11/20 04:58:31;;;;;;;4.10;3.73;;;;;;;10.86;57.17;98232.34;7005139;28;20857;-82
2022/11/20 05:01:52;;;;;;;3.47;3.17;;;;;;;10.58;57.63;98252.69;7005115;28;20707;-83
2022/11/20 05:05:14;;;;;;;3.70;3.40;;;;;;;10.99;56.98;98244.91;7003575;28;20275;-84
2022/11/20 05:08:35;;;;;;;5.80;5.30;;;;;;;11.15;56.18;98242.44;7003081;28;20243;-84
2022/11/20 05:11:57;;;;;;;4.00;3.60;;;;;;;11.28;55.77;98228.00;7003907;28;20225;-84
2022/11/20 05:15:33;;;;;;;4.33;3.30;;;;;;;11.46;55.88;98255.81;7002504;28;20292;-84
2022/11/20 05:18:55;;;;;;;3.93;3.40;;;;;;;11.26;56.25;98249.81;7003451;28;20206;-84
2022/11/20 05:22:17;;;;;;;3.90;3.50;;;;;;;11.24;56.36;98243.00;7003686;28;20296;-84
2022/11/20 05:25:38;;;;;;;3.53;3.23;;;;;;;11.25;55.81;98244.63;7002745;28;20251;-84
2022/11/20 05:29:00;;;;;;;4.70;3.40;;;;;;;11.07;56.78;98250.00;7004453;28;20209;-84
2022/11/20 05:32:25;;;;;;;3.20;3.00;;;;;;;11.22;56.17;98245.91;7003750;28;20233;-84
2022/11/20 05:35:47;;;;;;;3.70;3.40;;;;;;;10.86;56.59;98247.72;7003209;28;20288;-84
2022/11/20 05:39:09;;;;;;;4.03;3.00;;;;;;;11.01;56.90;98248.19;7003310;28;20626;-84
2022/11/20 05:42:31;;;;;;;3.57;3.00;;;;;;;10.96;56.83;98243.47;7003082;28;20209;-84
2022/11/20 05:45:53;;;;;;;3.93;3.30;;;;;;;10.79;57.00;98236.97;7001836;28;20312;-83
2022/11/20 05:49:16;;;;;;;3.33;3.03;;;;;;;10.58;58.13;98242.72;7002889;28;20279;-84
2022/11/20 05:52:38;;;;;;;3.43;3.13;;;;;;;10.46;58.20;98230.19;7002792;28;20233;-83
2022/11/20 05:56:00;;;;;;;3.17;2.97;;;;;;;10.81;56.67;98224.09;7001635;28;20358;-84
2022/11/20 05:59:21;;;;;;;3.40;3.17;;;;;;;10.72;57.61;98249.69;7003021;28;20263;-84
2022/11/20 06:02:43;;;;;;;3.20;2.90;;;;;;;11.14;56.09;98216.53;7002547;28;20343;-84
2022/11/20 06:06:06;;;;;;;3.60;3.30;;;;;;;11.18;55.46;98239.31;7001983;28;20233;-84
2022/11/20 06:09:28;;;;;;;3.17;2.97;;;;;;;11.21;56.22;98238.06;7002710;28;20244;-83
2022/11/20 06:12:49;;;;;;;2.83;2.63;;;;;;;11.38;55.64;98241.78;7001507;28;20225;-84
2022/11/20 06:16:12;;;;;;;3.57;3.27;;;;;;;11.46;55.55;98239.63;7001912;28;20340;-83
2022/11/20 06:19:33;;;;;;;3.30;3.10;;;;;;;11.42;55.75;98253.81;7002272;28;20256;-84
2022/11/20 06:22:56;;;;;;;3.20;2.90;;;;;;;11.29;54.88;98214.31;7002028;28;20379;-84
2022/11/20 06:26:20;;;;;;;3.33;3.03;;;;;;;11.30;55.26;98236.69;7002782;28;20833;-84
2022/11/20 06:29:41;;;;;;;3.33;2.90;;;;;;;11.04;55.54;98228.88;7003651;28;20296;-84
2022/11/20 06:33:03;;;;;;;4.57;3.47;;;;;;;11.27;54.88;98220.97;7004476;28;20209;-84
2022/11/20 06:36:25;;;;;;;3.10;2.90;;;;;;;10.58;55.64;98144.88;7004084;28;20260;-84
2022/11/20 06:39:47;;;;;;;4.47;3.40;;;;;;;11.00;55.97;98203.38;7004948;28;20616;-84
2022/11/20 06:43:10;;;;;;;3.10;2.90;;;;;;;11.33;55.42;98247.88;7005232;28;20213;-84
2022/11/20 06:46:32;;;;;;;2.90;2.70;;;;;;;10.93;56.05;98229.59;7004695;28;20252;-84
2022/11/20 06:49:53;;;;;;;3.27;2.73;;;;;;;11.10;55.75;98215.31;7005085;28;20297;-84
2022/11/20 06:53:15;;;;;;;3.30;3.00;;;;;;;11.18;55.43;98243.88;7006142;28;20687;-84
2022/11/20 06:56:38;;;;;;;4.80;3.40;;;;;;;10.95;56.04;98228.34;7004280;28;20279;-85
2022/11/20 06:59:59;;;;;;;3.03;2.60;;;;;;;11.10;55.86;98257.66;7005281;28;20279;-84
2022/11/20 07:03:21;;;;;;;4.73;3.23;;;;;;;11.11;55.51;98249.31;7005380;28;20254;-84
2022/11/20 07:06:43;;;;;;;4.03;3.20;;;;;;;11.33;55.25;98252.47;7003278;28;20305;-82
2022/11/20 07:10:05;;;;;;;3.90;3.03;;;;;;;10.88;55.67;98245.63;7003054;28;20296;-82
2022/11/20 07:13:28;;;;;;;6.53;3.23;;;;;;;10.87;56.18;98252.88;7002644;28;20229;-82
2022/11/20 07:16:50;;;;;;;3.30;3.00;;;;;;;11.26;55.16;98257.06;7002376;28;20314;-83
2022/11/20 07:20:12;;;;;;;3.90;3.47;;;;;;;11.60;54.86;98265.47;7003743;28;20245;-82
2022/11/20 07:23:34;;;;;;;3.70;3.40;;;;;;;11.64;54.58;98258.56;7006099;28;20264;-82
2022/11/20 07:26:55;;;;;;;3.17;2.90;;;;;;;11.61;54.08;98248.22;7007282;28;20252;-82
2022/11/20 07:30:19;;;;;;;4.13;2.73;;;;;;;11.08;55.61;98268.66;7008750;28;20237;-83
2022/11/20 07:33:40;;;;;;;3.47;3.10;;;;;;;11.56;54.83;98268.84;7009405;28;20212;-82
2022/11/20 07:37:03;;;;;;;4.20;3.27;;;;;;;11.35;54.84;98270.09;7008528;28;20367;-83
2022/11/20 07:40:25;;;;;;;4.47;3.40;;;;;;;11.55;54.65;98259.06;7009617;28;20742;-82
2022/11/20 07:43:46;;;;;;;3.67;3.37;;;;;;;11.22;54.90;98248.59;7010595;28;20247;-83
2022/11/20 07:47:09;;;;;;;4.20;3.30;;;;;;;11.52;54.48;98264.91;7009589;28;20249;-82
2022/11/20 07:50:31;;;;;;;3.67;3.37;;;;;;;10.98;55.28;98219.78;7010949;28;20215;-81
2022/11/20 07:53:53;;;;;;;3.37;2.87;;;;;;;11.37;54.14;98240.16;7012480;28;20225;-82
2022/11/20 07:57:15;;;;;;;4.90;3.97;;;;;;;11.71;53.97;98259.34;7012365;28;20316;-82
2022/11/20 08:00:36;;;;;;;6.00;3.00;;;;;;;11.62;54.41;98238.25;7013967;28;20225;-82
2022/11/20 08:03:59;;;;;;;3.30;2.90;;;;;;;11.55;54.20;98267.16;7013966;28;20662;-84
2022/11/20 08:07:21;;;;;;;3.67;3.37;;;;;;;12.14;53.30;98268.13;7007695;28;20243;-84
2022/11/20 08:10:42;;;;;;;3.03;2.83;;;;;;;12.31;53.50;98276.44;7008878;28;20240;-84
2022/11/20 08:14:12;;;;;;;3.03;2.80;;;;;;;12.36;53.19;98281.97;7009313;28;20375;-84
2022/11/20 08:17:33;;;;;;;3.87;2.90;;;;;;;12.00;54.19;98268.53;7008790;28;20225;-84
2022/11/20 08:20:56;;;;;;;3.33;3.03;;;;;;;11.99;53.92;98266.88;7009079;28;20204;-84
2022/11/20 08:24:18;;;;;;;3.20;2.90;;;;;;;11.67;54.67;98278.88;7007548;28;20247;-85
2022/11/20 08:27:39;;;;;;;2.93;2.67;;;;;;;11.89;54.11;98285.50;7009638;28;20877;-84
2022/11/20 08:31:02;;;;;;;2.90;2.70;;;;;;;11.86;54.13;98275.16;7013906;28;20633;-82
2022/11/20 08:34:24;;;;;;;3.10;2.80;;;;;;;11.66;54.59;98279.94;7013497;28;20202;-83
2022/11/20 08:37:48;;;;;;;3.20;2.90;;;;;;;11.46;54.01;98230.72;7013639;28;20232;-82
2022/11/20 08:45:04;;;;;;;3.63;3.30;;;;;;;11.83;54.70;98281.84;7014042;28;20213;-83
2022/11/20 08:48:26;;;;;;;4.03;2.67;;;;;;;11.80;53.95;98281.47;7013246;28;20259;-82
2022/11/20 08:51:51;;;;;;;3.30;3.00;;;;;;;11.65;55.02;98284.53;7013737;28;20289;-82
2022/11/20 08:55:14;;;;;;;2.97;2.77;;;;;;;11.87;55.25;98293.81;7012999;28;20205;-82
2022/11/20 08:58:36;;;;;;;2.77;2.53;;;;;;;11.77;54.82;98288.13;7013463;28;20225;-82
2022/11/20 09:01:58;;;;;;;2.63;2.43;;;;;;;11.28;54.67;98187.53;7012560;28;20216;-83
2022/11/20 09:05:20;;;;;;;2.80;2.60;;;;;;;11.87;54.86;98301.13;7008678;28;20205;-84
2022/11/20 09:08:42;;;;;;;2.90;2.70;;;;;;;11.77;54.78;98300.81;7010560;28;20201;-82
2022/11/20 09:12:05;;;;;;;2.97;2.67;;;;;;;12.16;53.93;98278.72;7013627;28;20210;-82
2022/11/20 09:15:27;;;;;;;4.40;2.70;;;;;;;11.99;54.69;98288.50;7011797;28;20693;-82
2022/11/20 09:18:50;;;;;;;2.70;2.50;;;;;;;12.38;53.74;98298.78;7009698;28;20279;-84
2022/11/20 09:22:12;;;;;;;2.40;2.20;;;;;;;12.63;53.65;98294.09;7007144;28;20288;-84
2022/11/20 09:25:34;;;;;;;2.73;2.53;;;;;;;12.80;52.96;98303.19;7005052;28;20292;-84
2022/11/20 09:28:57;;;;;;;2.67;2.47;;;;;;;11.88;54.50;98263.09;7007716;28;20291;-83
2022/11/20 09:32:19;;;;;;;2.53;2.40;;;;;;;11.52;56.10;98305.41;7008574;28;20201;-82
2022/11/20 09:35:40;;;;;;;2.60;2.40;;;;;;;11.87;54.44;98274.09;7008711;28;20225;-83
2022/11/20 09:39:02;;;;;;;2.80;2.20;;;;;;;11.58;55.18;98289.16;7010310;28;20229;-82
2022/11/20 09:42:35;;;;;;;2.63;2.43;;;;;;;11.42;55.85;98292.44;7010012;28;20624;-83
2022/11/20 09:46:05;;;;;;;2.60;2.40;;;;;;;11.79;55.60;98279.78;7007978;28;20228;-83
2022/11/20 09:49:34;;;;;;;3.10;2.80;;;;;;;11.83;55.20;98297.22;7010473;28;20229;-83
2022/11/20 09:53:08;;;;;;;2.50;2.30;;;;;;;11.59;55.95;98300.81;7009606;28;20673;-83
2022/11/20 09:56:30;;;;;;;2.80;2.40;;;;;;;11.77;55.87;98327.81;7007632;28;20262;-83
2022/11/20 09:59:56;;;;;;;2.40;2.20;;;;;;;11.88;55.84;98321.66;7011758;28;20252;-83
2022/11/20 10:03:23;;;;;;;2.50;2.30;;;;;;;12.14;55.63;98327.59;6990228;28;20210;-83
2022/11/20 10:06:49;;;;;;;1.90;1.80;;;;;;;11.91;54.10;98245.56;6979413;28;20237;-83
2022/11/20 10:10:15;;;;;;;2.00;1.90;;;;;;;12.31;54.02;98322.38;6983326;28;20206;-83
2022/11/20 10:13:41;;;;;;;3.20;2.90;;;;;;;12.02;54.97;98321.28;6981924;28;20272;-83
2022/11/20 10:17:06;;;;;;;18.43;10.77;;;;;;;12.30;54.39;98261.28;6981354;28;20222;-83
2022/11/20 10:20:36;;;;;;;2.00;1.77;;;;;;;12.37;54.83;98305.25;6981931;28;20240;-83
2022/11/20 10:24:07;;;;;;;1.87;1.77;;;;;;;12.04;55.62;98277.84;6981138;28;20244;-83
2022/11/20 10:27:41;;;;;;;11.83;10.70;;;;;;;12.30;56.07;98326.16;6982193;28;20260;-83
2022/11/20 10:31:07;;;;;;;6.37;5.80;;;;;;;12.23;56.04;98326.22;6988080;28;20190;-83
2022/11/20 10:34:32;;;;;;;7.23;6.53;;;;;;;11.97;56.77;98314.91;6983961;28;20187;-83
2022/11/20 10:37:58;;;;;;;3.93;2.33;;;;;;;12.21;56.06;98289.69;6987650;28;20222;-83
2022/11/20 10:41:27;;;;;;;2.63;2.43;;;;;;;12.41;55.68;98337.03;6983265;28;20214;-83
2022/11/20 10:45:02;;;;;;;2.50;2.30;;;;;;;12.27;56.49;98332.03;6982988;28;20213;-82
2022/11/20 10:48:26;;;;;;;3.67;2.60;;;;;;;12.33;57.26;98331.91;6983629;28;20225;-83
2022/11/20 10:51:57;;;;;;;2.90;2.43;;;;;;;12.06;58.92;98324.38;6980436;28;20623;-82
2022/11/20 10:55:28;;;;;;;3.63;2.30;;;;;;;11.81;59.40;98332.53;6978629;28;20208;-82
2022/11/20 10:59:01;;;;;;;1.67;1.60;;;;;;;11.09;59.54;98266.81;6985055;28;20755;-83
2022/11/20 11:02:25;;;;;;;2.60;2.40;;;;;;;11.80;59.26;98321.97;6988793;28;20213;-81
2022/11/20 11:05:51;;;;;;;2.20;2.00;;;;;;;12.01;59.15;98333.16;6988493;28;20236;-82
2022/11/20 11:09:16;;;;;;;2.20;2.10;;;;;;;11.72;59.08;98285.28;6988704;28;20194;-81
2022/11/20 11:12:44;;;;;;;4.30;4.00;;;;;;;11.10;59.56;98311.63;6986665;28;20206;-81
2022/11/20 11:16:06;;;;;;;3.40;3.13;;;;;;;11.13;59.32;98198.69;6987267;28;20233;-82
2022/11/20 11:19:28;;;;;;;10.40;9.30;;;;;;;11.67;60.28;98305.91;6987823;28;20233;-82
2022/11/20 11:22:54;;;;;;;10.83;9.83;;;;;;;11.70;59.68;98260.34;6984517;28;20245;-81
2022/11/20 11:26:20;;;;;;;9.60;6.80;;;;;;;12.22;59.62;98307.53;6989094;28;20307;-82
2022/11/20 11:29:44;;;;;;;4.30;3.90;;;;;;;12.34;58.76;98292.22;6988961;28;20198;-84
2022/11/20 11:33:07;;;;;;;3.53;3.13;;;;;;;12.25;58.86;98285.47;6984869;28;20202;-81
2022/11/20 11:36:28;;;;;;;3.77;3.37;;;;;;;12.52;58.81;98297.56;6982401;28;20222;-84
2022/11/20 11:39:50;;;;;;;3.00;2.80;;;;;;;12.52;58.51;98275.94;6982889;28;20321;-84
2022/11/20 11:46:56;;;;;;;6.57;4.13;;;;;;;12.58;57.81;98285.84;6983008;28;20219;-85
2022/11/20 11:50:20;;;;;;;2.70;2.50;;;;;;;12.98;57.48;98262.56;6983863;28;20252;-84
2022/11/20 11:53:42;;;;;;;4.90;3.57;;;;;;;13.55;56.54;98278.81;6981587;28;20202;-84
2022/11/20 11:57:12;;;;;;;4.00;2.90;;;;;;;14.18;55.07;98254.41;6980296;28;20233;-84
2022/11/20 12:00:35;;;;;;;2.90;2.63;;;;;;;14.82;53.51;98254.81;6980872;28;20301;-82
2022/11/20 12:04:05;;;;;;;3.47;2.47;;;;;;;14.18;53.21;98251.69;6981609;28;20289;-83
2022/11/20 12:07:36;;;;;;;2.53;2.30;;;;;;;13.87;52.78;98162.72;6982677;28;20262;-82
2022/11/20 12:11:02;;;;;;;4.13;2.83;;;;;;;14.90;52.13;98238.16;7003970;28;20239;-82
2022/11/20 12:14:31;;;;;;;2.63;2.13;;;;;;;14.46;51.56;98235.47;7008717;28;20256;-82
2022/11/20 12:17:52;;;;;;;3.70;2.27;;;;;;;14.77;51.78;98224.91;7008762;28;20228;-82
2022/11/20 12:21:22;;;;;;;3.30;2.00;;;;;;;14.65;50.42;98245.88;7009716;28;20226;-83
2022/11/20 12:24:53;;;;;;;2.10;2.00;;;;;;;14.45;51.59;98231.13;7004427;28;20190;-83
2022/11/20 12:28:23;;;;;;;2.90;1.90;;;;;;;14.43;50.94;98223.22;6980842;28;20290;-82
2022/11/20 12:31:57;;;;;;;2.60;1.73;;;;;;;14.41;51.80;98238.91;6982017;28;20224;-82
2022/11/20 12:35:33;;;;;;;2.43;2.23;;;;;;;13.81;53.08;98205.16;6980332;28;20207;-82
2022/11/20 12:39:16;;;;;;;2.53;2.03;;;;;;;14.32;51.38;98210.53;6980969;28;20316;-82
2022/11/20 12:46:35;;;;;;;3.70;3.40;;;;;;;13.99;51.01;98223.13;6979407;28;20226;-82
2022/11/20 12:50:04;;;;;;;2.87;2.57;;;;;;;15.03;48.77;98223.41;6980411;28;20238;-82
2022/11/20 12:53:30;;;;;;;3.63;1.80;;;;;;;14.88;49.04;98226.75;6981613;28;20214;-82
2022/11/20 12:56:59;;;;;;;2.20;2.00;;;;;;;14.59;49.15;98218.88;6980533;28;20322;-82
2022/11/20 13:00:22;;;;;;;6.10;2.37;;;;;;;14.24;49.51;98212.81;6981546;28;20233;-82
2022/11/20 13:03:46;;;;;;;2.83;1.80;;;;;;;14.14;49.24;98218.84;6984037;28;20256;-83
2022/11/20 13:07:11;;;;;;;2.40;2.00;;;;;;;13.58;48.85;98212.53;6984640;28;20265;-82
2022/11/20 13:10:38;;;;;;;2.30;2.10;;;;;;;13.83;47.89;98194.91;6980769;28;20293;-82
2022/11/20 13:14:09;;;;;;;2.63;2.17;;;;;;;14.67;46.40;98213.03;6980512;28;20241;-82
2022/11/20 13:17:35;;;;;;;50.83;22.20;;;;;;;14.90;45.21;98199.31;6979999;28;20235;-81
2022/11/20 13:20:57;;;;;;;5.87;3.63;;;;;;;15.18;44.35;98210.94;6989315;28;20306;-80
2022/11/20 13:24:26;;;;;;;15.67;10.90;;;;;;;14.50;42.58;98206.78;6980980;28;20567;-80
2022/11/20 13:27:48;;;;;;;4.83;4.43;;;;;;;14.05;44.66;98216.75;6981254;28;20313;-80
2022/11/20 13:31:33;;;;;;;3.33;2.27;;;;;;;14.49;43.49;98211.41;6981965;28;20669;-82
2022/11/20 13:34:57;;;;;;;4.07;3.07;;;;;;;14.19;44.87;98183.72;7000464;28;20202;-82
2022/11/20 13:38:19;;;;;;;1.60;1.50;;;;;;;13.81;44.63;98193.50;6983617;28;20258;-82
2022/11/20 13:41:41;;;;;;;1.60;1.50;;;;;;;13.06;45.46;98179.16;6978117;28;20704;-83
2022/11/20 13:45:09;;;;;;;2.50;1.80;;;;;;;13.42;43.91;98186.16;6978736;28;20788;-83
2022/11/20 13:48:34;;;;;;;2.63;1.80;;;;;;;13.84;43.63;98190.28;6977594;28;20225;-82
2022/11/20 13:52:06;;;;;;;1.93;1.80;;;;;;;14.46;43.36;98176.59;6978239;28;20324;-82
2022/11/20 13:55:34;;;;;;;1.70;1.60;;;;;;;14.38;43.56;98184.31;6977593;28;20300;-82
2022/11/20 13:59:02;;;;;;;3.80;2.23;;;;;;;13.97;44.76;98192.72;6977652;28;20719;-82
2022/11/20 14:02:26;;;;;;;1.80;1.67;;;;;;;13.92;43.86;98187.22;6978596;28;20221;-83
2022/11/20 14:05:51;;;;;;;2.60;1.90;;;;;;;13.69;43.39;98176.47;6977027;28;20249;-83
2022/11/20 14:09:14;;;;;;;2.50;1.90;;;;;;;13.09;45.16;98184.06;6978901;28;20298;-82
2022/11/20 14:12:36;;;;;;;4.17;1.63;;;;;;;13.42;43.86;98175.34;6977405;28;20241;-82
2022/11/20 14:15:58;;;;;;;3.07;1.87;;;;;;;13.44;44.40;98176.75;6976371;28;20591;-83
2022/11/20 14:19:30;;;;;;;4.37;1.87;;;;;;;13.10;45.49;98168.69;6976115;28;20308;-82
2022/11/20 14:22:53;;;;;;;3.00;2.00;;;;;;;13.65;44.67;98176.13;6975243;28;20198;-83
2022/11/20 14:26:18;;;;;;;2.83;1.90;;;;;;;13.52;45.29;98170.94;6976315;28;20260;-82
2022/11/20 14:29:40;;;;;;;3.37;1.77;;;;;;;13.96;43.93;98189.22;6977352;28;20228;-83
2022/11/20 14:33:03;;;;;;;3.07;2.20;;;;;;;13.26;45.50;98187.72;6976768;28;20212;-83
2022/11/20 14:36:26;;;;;;;9.20;6.60;;;;;;;13.01;45.95;98197.13;6976076;28;20254;-82
2022/11/20 14:39:52;;;;;;;8.50;6.37;;;;;;;12.86;46.66;98180.53;6977241;28;20254;-83
2022/11/20 14:43:20;;;;;;;6.97;4.87;;;;;;;13.43;45.93;98194.06;6976655;28;20244;-84
2022/11/20 14:46:41;;;;;;;5.53;3.37;;;;;;;12.99;47.52;98188.44;6976063;28;20364;-84
2022/11/20 14:50:03;;;;;;;13.77;12.37;;;;;;;13.14;47.57;98175.25;6976466;28;20222;-84
2022/11/20 14:53:25;;;;;;;4.33;3.23;;;;;;;13.48;46.92;98174.38;6975943;28;20225;-85
2022/11/20 14:56:56;;;;;;;4.67;4.27;;;;;;;12.70;48.35;98163.09;6976171;28;20261;-85
2022/11/20 15:00:23;;;;;;;2.37;2.00;;;;;;;12.79;47.31;98150.88;6975853;28;20217;-85
2022/11/20 15:03:44;;;;;;;2.20;2.00;;;;;;;12.54;46.72;98119.69;6975923;28;20217;-83
2022/11/20 15:07:06;;;;;;;2.80;1.80;;;;;;;12.50;47.51;98165.31;6978550;28;20276;-85
2022/11/20 15:10:28;;;;;;;2.50;2.00;;;;;;;12.74;47.19;98156.16;6976171;28;20233;-84
2022/11/20 15:13:51;;;;;;;2.47;2.00;;;;;;;12.12;47.48;98085.69;6976083;28;20862;-85
2022/11/20 15:17:13;;;;;;;2.00;1.90;;;;;;;12.71;46.76;98128.75;6975510;28;20229;-85
2022/11/20 15:20:36;;;;;;;2.17;1.97;;;;;;;13.00;46.73;98149.50;6976535;28;20253;-84
2022/11/20 15:23:59;;;;;;;3.73;2.07;;;;;;;13.16;46.04;98141.47;6974791;28;20325;-85
2022/11/20 15:27:20;;;;;;;1.97;1.87;;;;;;;13.07;46.73;98145.59;6976148;28;20237;-85
2022/11/20 15:30:43;;;;;;;2.10;2.00;;;;;;;12.86;46.79;98146.16;6976629;28;20198;-85
2022/11/20 15:34:07;;;;;;;1.80;1.70;;;;;;;12.72;47.16;98142.06;6976501;28;20249;-85
2022/11/20 15:37:28;;;;;;;2.40;2.03;;;;;;;12.61;47.99;98150.97;6976316;28;20321;-84
2022/11/20 15:40:50;;;;;;;4.23;2.00;;;;;;;12.78;47.58;98143.81;6977307;28;20265;-84
2022/11/20 15:44:11;;;;;;;3.17;2.30;;;;;;;12.75;48.08;98144.28;6980181;28;20205;-84
2022/11/20 15:47:36;;;;;;;5.33;2.00;;;;;;;12.31;48.98;98139.41;6984271;28;20706;-83
2022/11/20 15:51:02;;;;;;;3.77;2.10;;;;;;;12.11;49.55;98138.88;6983943;28;20225;-84
2022/11/20 15:54:23;;;;;;;2.23;2.13;;;;;;;12.16;49.34;98130.09;6984148;28;20195;-84
2022/11/20 15:57:45;;;;;;;2.63;2.10;;;;;;;12.26;48.88;98119.53;6980955;28;20277;-84
2022/11/20 16:01:09;;;;;;;2.90;2.20;;;;;;;12.37;49.46;98121.44;6980829;28;20221;-85
2022/11/20 16:04:32;;;;;;;2.50;2.30;;;;;;;12.48;48.41;98101.69;6980692;28;20225;-84
2022/11/20 16:07:53;;;;;;;2.43;2.27;;;;;;;11.90;50.23;98109.72;6978715;28;20258;-85
2022/11/20 16:11:17;;;;;;;2.20;2.10;;;;;;;12.61;48.80;98123.94;6979569;28;20218;-84
2022/11/20 16:18:19;;;;;;;3.90;2.33;;;;;;;12.61;48.89;98115.81;6980372;28;20219;-84